AirNav   ATP
 
 1648 users online  

50S Parma Airport
Parma, Idaho, USA

GOING TO PARMA?


FAA INFORMATION EFFECTIVE 19 JULY 2018

Location

FAA Identifier: 50S
Lat/Long: 43-46-43.5810N / 116-56-18.5500W
43-46.726350N / 116-56.309167W
43.7787725 / -116.9384861
(estimated)
Elevation: 2228 ft. / 679 m (estimated)
Variation: 17E (1985)
From city: 1 mile S of PARMA, ID
Time zone: UTC -6 (UTC -7 during Standard Time)
Zip code: 83660

Airport Operations

Airport use: Open to the public
Activation date: 04/1945
Control tower: no
ARTCC: SALT LAKE CITY CENTER
FSS: BOISE FLIGHT SERVICE STATION
NOTAMs facility: BOI (NOTAM-D service available)
Attendance: UNATTENDED
Wind indicator: yes
Segmented circle: yes
Lights: SS-SR

Airport Communications

CTAF: 122.9
WX ASOS at ONO (15 nm N): 135.275 (541-889-7388)
WX AWOS-3PT at EUL (15 nm SE): 135.075 (208-454-3953)

Nearby radio navigation aids

VOR radial/distance  VOR name  Freq  Var
BOIr276/35.1BOISE VORTAC113.3017E

 
NDB name  Hdg/Dist  Freq  Var  ID
ONTARIO155/14.830513EONO --- -. ---

Airport Services

Parking: tiedowns
Airframe service: NONE
Powerplant service: NONE
Bottled oxygen: NONE
Bulk oxygen: NONE

Runway Information

Runway 12/30

Dimensions: 2700 x 50 ft. / 823 x 15 m
Surface: asphalt, in good condition
Runway edge lights: low intensity
Operational restrictions: RCMD LAND RWY 30; TKOF RWY 12 WHEN WIND COND PERMIT.
RUNWAY 12  RUNWAY 30
Latitude: 43-46.817000N43-46.505000N
Longitude: 116-56.416000W116-55.980000W
Traffic pattern: rightleft
Markings: basic, in good conditionbasic, in good condition
Obstructions: 79 ft. tree, 520 ft. from runway, 157 ft. right of centerline, 4:1 slope to clear3 ft. fence, 200 ft. from runway, 107 ft. left of centerline
3' FENCE AT 199', 115' RIGHT

Airport Ownership and Management from official FAA records

Ownership: Publicly-owned
Owner: CITY OF PARMA
PO BOX 608
PARMA, ID 83660
Phone 208-722-5138
Manager: NATHAN LEIGH
P O BOX 608
PARMA, ID 83660
Phone 208-722-5138

Airport Operational Statistics

Aircraft based on the field: 4
Single engine airplanes: 4
    
Aircraft operations: avg 73/week *
87% transient general aviation
12% local general aviation
1% military
* for 12-month period ending 12 January 2018

Additional Remarks

RWY 12: NUMEROUS ADDITIONAL OBSTRUCTIONS ON APPROACH TO RWY 12 (SEVERAL COMMERCIAL WAREHOUSE BLDGS, POWER LINE AND TREES).

Instrument Procedures

There are no published instrument procedures at 50S.

Some nearby airports with instrument procedures:

KONO - Ontario Municipal Airport (15 nm N)
KEUL - Caldwell Industrial Airport (15 nm SE)
KMAN - Nampa Municipal Airport (22 nm SE)
S87 - Weiser Municipal Airport (26 nm N)
KBOI - Boise Air Terminal/Gowen Field (34 nm E)
 
Loc | Ops | Rwys | IFR | FBO | Links
Com | Nav | Svcs | Stats | Notes


 
Area around 50S (Parma Airport)
 
Road maps at: MapQuest Bing Google
 
Aerial photo
WARNING: Photo may not be current or correct
Aerial photo of 50S (Parma Airport)
Photo by Tad Jones
Photo taken 03-Apr-2018
looking southeast.

Do you have a better or more recent aerial photo of Parma Airport that you would like to share? If so, please send us your photo.

 
Sectional chart

 
Airport distance calculator
Flying to Parma Airport? Find the distance to fly.

From to 50S

Sunrise and sunset
Times for 14-Aug-2018
 Local
(UTC-6)
 Zulu
(UTC)
Morning civil twilight06:2112:21
Sunrise06:5212:52
Sunset20:5302:53
Evening civil twilight21:2403:24

Current date and time
Zulu (UTC)  14-Aug-2018 20:18:39
Local (UTC-6)  14-Aug-2018 14:18:39
 
METAR
KONO 
15nm N 
141953Z AUTO VRB05KT 6SM HZ CLR 32/03 A2995 RMK AO2 SLP124 T03220028 TSNO
KEUL 
17nm SE 
141956Z AUTO 28006KT 7SM CLR 30/08 A2996 RMK AO2 SLP121 T03000078
KMAN 
22nm SE 
141955Z AUTO 32006KT 8SM CLR 30/05 A2996 RMK A01
TAF
KEUL 
17nm SE 
141721Z 1418/1518 VRB05KT 6SM FU SKC TEMPO 1418/1420 5SM FU
NOTAMs
Click for the latest NOTAMs
NOTAMs are issued by the DoD/FAA and will open in a separate window not controlled by AirNav.

 

 
 

Would you like to see your business listed on this page?

 If your business provides an interesting product or service to pilots, flight crews, aircraft, or users of the Parma Airport, you should consider listing it here.  To start the listing process, click on the button below
 
Add a business
 

Other Pages about Parma Airport

Update a link
 
Copyright © AirNav, LLC. All rights reserved. Privacy Policy  Contact